Time;durP1;ratioP1;P1;durP2;ratioP2;P2;SDS_P1;SDS_P2;PMS_P1;PMS_P2;Temp;Humidity;BMP_temperature;BMP_pressure;BME280_temperature;BME280_humidity;BME280_pressure;Samples;Min_cycle;Max_cycle;Signal;HPM_P1;HPM_P2
2023/05/27 00:02:13;;;;;;;11.07;7.10;;;;;;;-141.97;83.82;47613.25;4997398;28;20164;-83
2023/05/27 00:04:39;;;;;;;12.30;7.10;;;;;;;-141.97;84.35;47669.00;4998033;28;20167;-83
2023/05/27 00:07:04;;;;;;;10.97;7.40;;;;;;;-141.97;83.42;47680.53;4978968;28;20215;-84
2023/05/27 00:09:30;;;;;;;9.90;7.07;;;;;;;-141.97;83.49;47680.53;4996877;28;20187;-84
2023/05/27 00:11:55;;;;;;;8.30;6.70;;;;;;;-141.97;82.70;47699.75;4996975;28;20543;-83
2023/05/27 00:14:21;;;;;;;10.87;6.93;;;;;;;-141.97;82.97;47542.16;4996846;28;20171;-83
2023/05/27 00:16:49;;;;;;;9.03;6.87;;;;;;;-141.97;81.95;47521.00;4996959;28;20218;-84
2023/05/27 00:19:16;;;;;;;11.17;7.40;;;;;;;-141.97;81.79;47659.38;4979431;28;20612;-83
2023/05/27 00:21:42;;;;;;;10.93;7.13;;;;;;;-141.97;82.04;47626.72;4996594;28;20179;-84
2023/05/27 00:24:08;;;;;;;10.77;7.13;;;;;;;-141.97;82.86;47792.03;4997416;28;20678;-84
2023/05/27 00:26:33;;;;;;;12.90;7.93;;;;;;;-141.97;82.47;47572.91;4996693;28;20187;-85
2023/05/27 00:28:59;;;;;;;12.90;7.27;;;;;;;-141.97;82.99;47526.75;4996645;28;20178;-83
2023/05/27 00:31:25;;;;;;;13.93;7.60;;;;;;;-141.97;82.06;47672.84;4995240;28;20273;-84
2023/05/27 00:33:50;;;;;;;11.03;7.50;;;;;;;-141.97;83.02;47676.69;4996172;28;20167;-84
2023/05/27 00:36:17;;;;;;;13.70;8.10;;;;;;;-141.97;83.27;47778.56;4996369;28;20265;-84
2023/05/27 00:38:43;;;;;;;12.37;8.00;;;;;;;-141.97;84.32;47522.91;4979093;28;20647;-83
2023/05/27 00:41:10;;;;;;;14.33;7.67;;;;;;;-141.97;84.24;47703.59;4996228;28;20239;-84
2023/05/27 00:43:36;;;;;;;11.13;7.20;;;;;;;-141.97;84.12;47780.47;4996425;28;20167;-84
2023/05/27 00:46:01;;;;;;;13.93;7.37;;;;;;;-141.97;84.05;47549.84;4978740;28;20183;-84
2023/05/27 00:48:26;;;;;;;11.67;7.60;;;;;;;-141.97;84.40;47599.81;4996448;28;20278;-83
2023/05/27 00:50:52;;;;;;;12.77;7.47;;;;;;;-141.97;84.49;47634.41;4995666;28;20167;-83
2023/05/27 00:53:19;;;;;;;10.77;7.20;;;;;;;-141.97;84.95;47665.16;4995783;28;20175;-84
2023/05/27 00:55:45;;;;;;;11.07;7.27;;;;;;;-141.97;85.17;47694.00;4995549;28;20168;-84
2023/05/27 00:58:11;;;;;;;12.43;7.57;;;;;;;-141.97;84.91;47682.47;4995760;28;20167;-85
2023/05/27 01:00:38;;;;;;;10.87;7.30;;;;;;;-141.97;84.39;47703.59;4995903;28;20175;-82
2023/05/27 01:03:06;;;;;;;11.77;6.87;;;;;;;-141.97;84.07;47684.38;4994923;28;20180;-83
2023/05/27 01:05:33;;;;;;;9.77;7.17;;;;;;;-141.97;83.11;47672.84;4995464;28;20160;-83
2023/05/27 01:08:20;;;;;;;10.33;6.63;;;;;;;-141.97;81.52;47692.06;4978398;28;20195;-84
2023/05/27 01:10:45;;;;;;;10.50;6.80;;;;;;;-141.97;80.44;47676.69;4995932;28;20159;-83
2023/05/27 01:13:19;;;;;;;10.00;6.77;;;;;;;-141.97;80.37;47718.97;4994996;28;20174;-84
2023/05/27 01:15:47;;;;;;;11.00;6.73;;;;;;;-141.97;79.68;47661.31;4994619;28;20168;-84
2023/05/27 01:18:16;;;;;;;11.17;6.80;;;;;;;-141.97;78.88;47713.22;4995436;28;20214;-84
2023/05/27 01:20:43;;;;;;;9.60;7.00;;;;;;;-141.97;78.48;47872.75;4995496;28;20651;-85
2023/05/27 01:23:09;;;;;;;10.07;6.57;;;;;;;-141.97;78.76;47622.88;4977764;28;20179;-84
2023/05/27 01:25:34;;;;;;;11.70;6.97;;;;;;;-141.97;78.74;47695.91;4994530;28;20171;-83
2023/05/27 01:28:00;;;;;;;8.90;6.77;;;;;;;-141.97;78.91;47701.69;4994804;28;20195;-83
2023/05/27 01:30:25;;;;;;;9.43;6.70;;;;;;;-141.97;78.65;47672.84;4994975;28;20183;-85
2023/05/27 01:32:54;;;;;;;8.60;6.60;;;;;;;-141.97;77.79;47680.53;4995462;28;20569;-84
2023/05/27 01:35:42;;;;;;;10.27;6.53;;;;;;;-141.97;76.87;47651.69;4995661;28;20167;-84
2023/05/27 01:38:12;;;;;;;8.50;6.47;;;;;;;-141.97;76.81;47657.47;4995594;28;20173;-84
2023/05/27 01:40:40;;;;;;;9.33;6.70;;;;;;;-141.97;77.18;47676.69;4995801;28;20167;-84
2023/05/27 01:43:06;;;;;;;11.40;6.53;;;;;;;-141.97;76.69;47688.22;4994391;28;20432;-84
2023/05/27 01:45:33;;;;;;;11.00;7.70;;;;;;;-141.97;76.56;47682.47;4977274;28;20233;-84
2023/05/27 01:47:59;;;;;;;10.73;7.33;;;;;;;-141.97;76.60;47615.19;4994765;28;20267;-84
2023/05/27 01:50:25;;;;;;;12.20;7.83;;;;;;;-141.97;76.95;47647.84;4995209;28;20639;-84
2023/05/27 01:52:51;;;;;;;11.10;7.77;;;;;;;-141.97;76.82;47661.31;4977448;28;20225;-83
2023/05/27 01:55:17;;;;;;;9.33;7.17;;;;;;;-141.97;76.23;47665.16;4994127;28;20298;-84
2023/05/27 01:57:43;;;;;;;10.83;7.10;;;;;;;-141.97;75.96;47595.97;4994264;28;20298;-84
2023/05/27 02:00:09;;;;;;;10.13;7.40;;;;;;;-141.97;75.19;47676.69;4994288;28;20254;-84
2023/05/27 02:02:34;;;;;;;9.77;7.40;;;;;;;-141.97;75.20;47690.16;4976706;28;20230;-84
2023/05/27 02:05:00;;;;;;;11.27;7.70;;;;;;;-141.97;74.88;47651.69;4994454;28;20628;-84
2023/05/27 02:07:26;;;;;;;10.63;7.73;;;;;;;-141.97;74.54;47703.59;4994364;28;20257;-84
2023/05/27 02:09:52;;;;;;;16.93;7.80;;;;;;;-141.97;74.42;47663.22;4994377;28;20160;-84
2023/05/27 02:12:17;;;;;;;10.50;7.53;;;;;;;-141.97;74.41;47849.69;4994498;28;20628;-84
2023/05/27 02:14:44;;;;;;;11.43;8.03;;;;;;;-141.97;74.38;47657.47;4994079;28;20147;-84
2023/05/27 02:17:10;;;;;;;9.83;7.13;;;;;;;-141.97;75.31;47657.47;4977415;28;20187;-84
2023/05/27 02:19:35;;;;;;;10.53;6.87;;;;;;;-141.97;75.96;47697.84;4994519;28;20179;-84
2023/05/27 02:22:01;;;;;;;11.07;6.83;;;;;;;-141.97;76.52;47607.50;4988706;28;20179;-84
2023/05/27 02:24:26;;;;;;;9.10;6.90;;;;;;;-141.97;76.62;47669.00;4974054;28;20172;-83
2023/05/27 02:26:51;;;;;;;9.60;6.90;;;;;;;-141.97;76.60;47851.59;4974892;28;20195;-84
2023/05/27 02:29:17;;;;;;;11.57;7.07;;;;;;;-141.97;76.34;47667.06;4974515;28;20168;-84
2023/05/27 02:31:42;;;;;;;9.87;6.53;;;;;;;-141.97;75.70;47663.22;4974808;28;20656;-84
2023/05/27 02:34:08;;;;;;;9.47;6.60;;;;;;;-141.97;75.61;47657.47;4974608;28;20172;-84
2023/05/27 02:36:33;;;;;;;9.53;6.13;;;;;;;-141.97;75.36;47584.44;4974592;28;20243;-85
2023/05/27 02:38:59;;;;;;;7.67;5.90;;;;;;;-141.97;75.68;47642.09;4973407;28;20185;-84
2023/05/27 02:41:24;;;;;;;7.57;5.93;;;;;;;-141.97;75.58;47713.22;4978258;28;20229;-84
2023/05/27 02:43:50;;;;;;;8.40;5.73;;;;;;;-141.97;75.70;47686.31;4993233;28;20254;-84
2023/05/27 02:46:15;;;;;;;7.67;5.73;;;;;;;-141.97;75.64;47530.59;4993439;28;20226;-84
2023/05/27 02:48:40;;;;;;;7.93;6.17;;;;;;;-141.97;75.47;47570.97;4992578;28;20808;-85
2023/05/27 02:51:06;;;;;;;7.83;5.83;;;;;;;-141.97;75.42;47659.38;4993609;28;20163;-84
2023/05/27 02:53:31;;;;;;;10.23;6.20;;;;;;;-141.97;75.24;47607.50;4993011;28;20190;-84
2023/05/27 02:55:56;;;;;;;8.73;5.80;;;;;;;-141.97;75.10;47647.84;4993161;28;20644;-84
2023/05/27 02:58:22;;;;;;;8.60;6.00;;;;;;;-141.97;74.58;47713.22;4993199;28;20217;-84
2023/05/27 03:00:47;;;;;;;9.30;6.10;;;;;;;-141.97;74.45;47703.59;4993615;28;20249;-84
2023/05/27 03:03:13;;;;;;;7.83;6.20;;;;;;;-141.97;74.63;47711.28;4992445;28;20170;-83
2023/05/27 03:05:38;;;;;;;9.90;6.10;;;;;;;-141.97;74.57;47570.97;4976299;28;20164;-83
2023/05/27 03:08:05;;;;;;;9.43;6.30;;;;;;;-141.97;74.42;47653.63;4993818;28;20403;-84
2023/05/27 03:10:32;;;;;;;8.50;6.30;;;;;;;-141.97;74.58;47688.22;4994311;28;20155;-84
2023/05/27 03:12:57;;;;;;;7.57;5.60;;;;;;;-141.97;73.85;47680.53;4992984;28;20587;-84
2023/05/27 03:15:23;;;;;;;7.57;5.60;;;;;;;-141.97;73.25;47619.03;4992917;28;20166;-85
2023/05/27 03:17:48;;;;;;;7.20;4.83;;;;;;;-141.97;73.26;47688.22;4976172;28;20296;-85
2023/05/27 03:20:16;;;;;;;8.33;5.67;;;;;;;-141.97;73.34;47644.00;4993857;28;20163;-85
2023/05/27 03:22:42;;;;;;;7.53;5.40;;;;;;;-141.97;73.24;47657.47;4993263;28;20173;-85
2023/05/27 03:25:07;;;;;;;8.13;5.07;;;;;;;-141.97;72.84;47790.09;4993485;28;20152;-85
2023/05/27 03:27:33;;;;;;;7.73;5.10;;;;;;;-141.97;72.81;47805.47;4975148;28;20222;-84
2023/05/27 03:29:59;;;;;;;7.67;5.27;;;;;;;-141.97;72.67;47695.91;4993165;28;20163;-84
2023/05/27 03:32:24;;;;;;;7.83;5.27;;;;;;;-141.97;72.40;47645.94;4993942;28;20156;-85
2023/05/27 03:34:50;;;;;;;8.17;6.37;;;;;;;-141.97;72.41;47640.16;4992978;28;20249;-84
2023/05/27 03:37:15;;;;;;;7.53;6.00;;;;;;;-141.97;72.51;47657.47;4975574;28;20492;-85
2023/05/27 03:39:41;;;;;;;11.40;6.10;;;;;;;-141.97;72.54;47665.16;4992657;28;20175;-84
2023/05/27 03:42:06;;;;;;;9.53;6.10;;;;;;;-141.97;72.21;47674.78;4975492;28;20230;-85
2023/05/27 03:44:32;;;;;;;7.97;5.70;;;;;;;-141.97;71.71;47667.06;4975642;28;20226;-85
2023/05/27 03:46:58;;;;;;;8.53;6.23;;;;;;;-141.97;71.53;47630.56;4975183;28;20238;-84
2023/05/27 03:49:23;;;;;;;9.30;5.80;;;;;;;-141.97;72.09;47695.91;4992914;28;20171;-85
2023/05/27 03:51:49;;;;;;;6.83;5.67;;;;;;;-141.97;72.76;47695.91;4975128;28;20185;-84
2023/05/27 03:54:14;;;;;;;7.47;5.90;;;;;;;-141.97;72.55;47669.00;4993326;28;20172;-84
2023/05/27 03:56:40;;;;;;;7.67;5.97;;;;;;;-141.97;72.32;47584.44;4992713;28;20227;-84
2023/05/27 03:59:08;;;;;;;8.70;6.10;;;;;;;-141.97;72.12;47680.53;4993209;28;20305;-83
2023/05/27 04:01:33;;;;;;;9.80;6.43;;;;;;;-141.97;72.32;47655.53;4975386;28;20171;-83
2023/05/27 04:03:59;;;;;;;9.50;5.70;;;;;;;-141.97;72.44;47842.00;4974679;28;20171;-85
2023/05/27 04:06:24;;;;;;;7.23;5.70;;;;;;;-141.97;72.26;47705.53;4977037;28;20167;-83
2023/05/27 04:08:50;;;;;;;7.90;5.70;;;;;;;-141.97;72.62;47588.28;4996866;28;20238;-84
2023/05/27 04:11:15;;;;;;;8.40;5.47;;;;;;;-141.97;72.35;47653.63;4997142;28;20232;-83
2023/05/27 04:13:41;;;;;;;7.90;5.47;;;;;;;-141.97;71.92;47595.97;4997033;28;20167;-84
2023/05/27 04:16:07;;;;;;;6.90;5.40;;;;;;;-141.97;71.68;47653.63;4996210;28;20581;-86
2023/05/27 04:18:33;;;;;;;8.97;5.27;;;;;;;-141.97;71.58;47684.38;4997089;28;20215;-85
2023/05/27 04:21:00;;;;;;;7.20;5.37;;;;;;;-141.97;70.94;47603.66;4997304;28;20246;-85
2023/05/27 04:23:25;;;;;;;7.87;5.50;;;;;;;-141.97;70.86;47692.06;4997527;28;20187;-84
2023/05/27 04:25:52;;;;;;;7.50;5.40;;;;;;;-141.97;70.15;47669.00;4996256;28;20172;-83
2023/05/27 04:28:17;;;;;;;8.90;5.93;;;;;;;-141.97;69.84;47613.25;4996408;28;20222;-84
2023/05/27 04:30:45;;;;;;;8.63;5.57;;;;;;;-141.97;69.92;47651.69;4996453;28;20620;-85
2023/05/27 04:33:12;;;;;;;8.47;5.23;;;;;;;-141.97;70.62;47686.31;4995934;28;20163;-84
2023/05/27 04:35:40;;;;;;;7.47;5.93;;;;;;;-141.97;70.52;47669.00;4996940;28;20160;-85
2023/05/27 04:38:07;;;;;;;9.73;5.73;;;;;;;-141.97;70.38;47694.00;4996182;28;20163;-84
2023/05/27 04:40:34;;;;;;;8.00;6.10;;;;;;;-141.97;69.95;47797.78;4996291;28;20170;-84
2023/05/27 04:42:59;;;;;;;13.57;6.93;;;;;;;-141.97;69.98;47674.78;4996146;28;20302;-84
2023/05/27 04:45:26;;;;;;;10.60;6.53;;;;;;;-141.97;69.40;47684.38;4996407;28;20206;-85
2023/05/27 04:47:51;;;;;;;9.90;6.70;;;;;;;-141.97;69.29;47415.28;4996317;28;20616;-90
2023/05/27 04:50:17;;;;;;;11.00;6.93;;;;;;;-141.97;69.31;47667.06;4996633;28;20207;-83
2023/05/27 04:52:42;;;;;;;9.60;6.90;;;;;;;-141.97;68.91;47697.84;4995965;28;20670;-84
2023/05/27 04:55:09;;;;;;;8.93;7.13;;;;;;;-141.97;68.62;47624.78;4995821;28;20672;-85
2023/05/27 04:57:36;;;;;;;12.90;7.97;;;;;;;-141.97;68.53;47659.38;4995999;28;20222;-84
2023/05/27 05:02:34;;;;;;;11.67;7.20;;;;;;;-141.97;68.94;47818.94;4996164;28;20608;-85
2023/05/27 05:05:11;;;;;;;10.33;6.60;;;;;;;-141.97;69.47;47638.25;4998341;28;20278;-84
2023/05/27 05:07:41;;;;;;;9.70;6.33;;;;;;;-141.97;69.90;47570.97;4996158;28;20190;-84
2023/05/27 05:10:15;;;;;;;8.33;6.37;;;;;;;-141.97;69.17;47676.69;5004289;28;20167;-84
2023/05/27 05:12:41;;;;;;;9.53;6.40;;;;;;;-141.97;70.07;47599.81;5014578;28;20174;-84
2023/05/27 05:15:08;;;;;;;8.17;6.10;;;;;;;-141.97;68.79;47649.78;5013428;28;20170;-84
2023/05/27 05:17:33;;;;;;;9.47;6.33;;;;;;;-141.97;68.98;47603.66;5013905;28;20152;-84
2023/05/27 05:19:59;;;;;;;8.07;6.13;;;;;;;-141.97;68.91;47619.03;4998735;28;20200;-85
2023/05/27 05:22:26;;;;;;;6.73;5.87;;;;;;;-141.97;68.42;47638.25;4998872;28;20206;-85
2023/05/27 05:24:51;;;;;;;6.97;5.63;;;;;;;-141.97;68.30;47686.31;5003926;28;20183;-84
2023/05/27 05:27:17;;;;;;;9.50;6.00;;;;;;;-141.97;67.25;47603.66;5016430;28;20198;-85
2023/05/27 05:29:42;;;;;;;11.23;6.30;;;;;;;-141.97;66.25;47803.56;5015582;28;20189;-84
2023/05/27 05:32:10;;;;;;;7.63;5.83;;;;;;;-141.97;66.14;47807.41;5015176;28;20222;-85
2023/05/27 05:34:36;;;;;;;7.80;5.80;;;;;;;-141.97;65.20;47626.72;5015814;28;20170;-84
2023/05/27 05:37:02;;;;;;;9.07;5.80;;;;;;;-141.97;64.72;47690.16;5015112;28;20159;-84
2023/05/27 05:39:27;;;;;;;9.10;5.50;;;;;;;-141.97;64.20;47688.22;5014229;28;20186;-84
2023/05/27 05:41:53;;;;;;;8.47;5.23;;;;;;;-141.97;63.49;47690.16;5014669;28;20727;-84
2023/05/27 05:44:18;;;;;;;8.00;5.00;;;;;;;-141.97;62.52;47580.59;5015768;28;20248;-84
2023/05/27 05:46:44;;;;;;;5.70;4.57;;;;;;;-141.97;62.36;47549.84;5015596;28;20198;-84
2023/05/27 05:49:09;;;;;;;9.23;5.13;;;;;;;-141.97;62.90;47586.34;5017901;28;20171;-85
2023/05/27 05:51:35;;;;;;;7.43;5.17;;;;;;;-141.97;61.71;47586.34;5019614;28;20273;-85
2023/05/27 05:54:01;;;;;;;7.27;5.53;;;;;;;-141.97;61.24;47626.72;5018813;28;20171;-85
2023/05/27 05:56:27;;;;;;;8.97;5.60;;;;;;;-141.97;61.33;47661.31;5019083;28;20171;-85
2023/05/27 05:58:52;;;;;;;7.57;5.70;;;;;;;-141.97;61.99;47619.03;5000813;28;20162;-84
2023/05/27 06:01:19;;;;;;;9.40;6.20;;;;;;;-141.97;63.21;47780.47;5017880;28;20198;-84
2023/05/27 06:03:45;;;;;;;8.73;6.13;;;;;;;-141.97;64.32;47657.47;4998532;28;20181;-85
2023/05/27 06:06:10;;;;;;;7.80;5.83;;;;;;;-141.97;64.12;47622.88;5015049;28;20171;-85
2023/05/27 06:08:36;;;;;;;8.87;6.17;;;;;;;-141.97;64.77;47645.94;4998221;28;20217;-84
2023/05/27 06:11:02;;;;;;;11.90;6.00;;;;;;;-141.97;63.75;47830.47;5015909;28;20167;-84
2023/05/27 06:13:27;;;;;;;8.03;5.67;;;;;;;-141.97;64.11;47776.63;4997239;28;20185;-83
2023/05/27 06:15:53;;;;;;;17.33;5.97;;;;;;;-141.97;62.32;47688.22;4983399;28;20187;-83
2023/05/27 06:18:18;;;;;;;7.07;5.07;;;;;;;-141.97;61.80;47649.78;4995185;28;20164;-84
2023/05/27 06:20:43;;;;;;;7.70;4.93;;;;;;;-141.97;61.71;47657.47;4977265;28;20167;-84
2023/05/27 06:23:09;;;;;;;5.90;4.60;;;;;;;-141.97;61.15;47688.22;4994874;28;20156;-84
2023/05/27 06:25:34;;;;;;;9.40;4.97;;;;;;;-141.97;61.96;47622.88;4994805;28;20167;-83
2023/05/27 06:28:00;;;;;;;7.83;4.87;;;;;;;-141.97;63.12;47657.47;4994482;28;20189;-84
2023/05/27 06:30:27;;;;;;;8.43;5.13;;;;;;;-141.97;63.76;47657.47;4994749;28;20663;-83
2023/05/27 06:32:52;;;;;;;10.43;5.63;;;;;;;-141.97;63.73;47838.16;4994729;28;20587;-84
2023/05/27 06:35:18;;;;;;;8.10;5.67;;;;;;;-141.97;63.71;47678.63;4994675;28;20171;-84
2023/05/27 06:37:43;;;;;;;7.93;6.10;;;;;;;-141.97;64.29;47503.69;4994743;28;20151;-84
2023/05/27 06:40:10;;;;;;;7.73;5.83;;;;;;;-141.97;63.62;47597.88;4995002;28;20246;-85
2023/05/27 06:42:36;;;;;;;9.27;5.37;;;;;;;-141.97;63.42;47628.63;4994143;28;20257;-84
2023/05/27 06:45:02;;;;;;;6.97;5.53;;;;;;;-141.97;63.10;47630.56;4993792;28;20180;-83
2023/05/27 06:47:27;;;;;;;8.03;5.67;;;;;;;-141.97;63.53;47595.97;4994744;28;20188;-84
2023/05/27 06:49:53;;;;;;;6.43;4.60;;;;;;;-141.97;64.52;47642.09;4994742;28;20159;-85
2023/05/27 06:52:18;;;;;;;12.40;4.97;;;;;;;-141.97;65.85;47707.44;4994867;28;20657;-83
2023/05/27 06:54:44;;;;;;;7.90;5.50;;;;;;;-141.97;66.25;47638.25;4994435;28;20163;-84
2023/05/27 06:57:09;;;;;;;6.07;4.90;;;;;;;-141.97;66.92;47811.25;4993002;28;20170;-83
2023/05/27 06:59:34;;;;;;;8.83;5.07;;;;;;;-141.97;66.05;47546.00;4992995;28;20156;-83
2023/05/27 07:02:00;;;;;;;6.00;4.63;;;;;;;-141.97;64.38;47667.06;4994955;28;20163;-83
2023/05/27 07:04:26;;;;;;;9.00;5.10;;;;;;;-141.97;64.07;47582.50;4994242;28;20163;-83
2023/05/27 07:06:51;;;;;;;8.60;5.50;;;;;;;-141.97;63.32;47667.06;4979900;28;20222;-83
2023/05/27 07:09:17;;;;;;;7.50;5.60;;;;;;;-141.97;62.87;47632.47;4976285;28;20240;-84
2023/05/27 07:11:42;;;;;;;6.30;5.13;;;;;;;-141.97;61.99;47638.25;4977008;28;20177;-84
2023/05/27 07:14:11;;;;;;;6.17;5.10;;;;;;;-141.97;62.12;47446.03;4976736;28;20304;-84
2023/05/27 07:16:36;;;;;;;7.40;5.13;;;;;;;-141.97;61.89;47669.00;4975171;28;20157;-83
2023/05/27 07:19:02;;;;;;;10.03;5.43;;;;;;;-141.97;61.93;47515.22;4975930;28;20204;-84
2023/05/27 07:21:28;;;;;;;10.43;5.17;;;;;;;-141.97;62.69;47636.31;4978278;28;20240;-85
2023/05/27 07:23:53;;;;;;;5.00;4.43;;;;;;;-141.97;62.75;47636.31;4976569;28;20259;-83
2023/05/27 07:26:19;;;;;;;7.73;5.03;;;;;;;-141.97;63.09;47653.63;4978008;28;20214;-84
2023/05/27 07:28:46;;;;;;;7.90;5.13;;;;;;;-141.97;63.98;47726.66;4992318;28;20585;-84
2023/05/27 07:31:11;;;;;;;10.90;6.07;;;;;;;-141.97;64.52;47507.53;4976777;28;20170;-83
2023/05/27 07:33:37;;;;;;;14.10;6.80;;;;;;;-141.97;64.46;47628.63;4977287;28;20243;-83
2023/05/27 07:36:02;;;;;;;9.10;5.10;;;;;;;-141.97;63.63;47638.25;4975800;28;20190;-84
2023/05/27 07:38:28;;;;;;;10.70;6.17;;;;;;;-141.97;64.51;47795.88;4976687;28;20571;-85
2023/05/27 07:40:58;;;;;;;11.40;6.60;;;;;;;-141.97;64.51;47657.47;4977439;28;20177;-84
2023/05/27 07:43:23;;;;;;;10.77;7.23;;;;;;;-141.97;64.74;47588.28;4998887;28;20167;-85
2023/05/27 07:45:49;;;;;;;9.00;5.37;;;;;;;-141.97;65.51;47793.94;4998310;28;20166;-84
2023/05/27 07:48:14;;;;;;;8.33;5.17;;;;;;;-141.97;66.62;47609.41;4998395;28;20678;-85
2023/05/27 07:50:40;;;;;;;8.53;5.87;;;;;;;-141.97;66.03;47832.38;4997347;28;20151;-86
2023/05/27 07:53:05;;;;;;;11.00;5.60;;;;;;;-141.97;65.32;47644.00;4979994;28;20178;-85
2023/05/27 07:55:30;;;;;;;9.00;5.20;;;;;;;-141.97;64.72;47619.03;4980787;28;20229;-86
2023/05/27 07:57:56;;;;;;;6.50;4.80;;;;;;;-141.97;63.57;47480.63;4997915;28;20326;-85
2023/05/27 08:00:21;;;;;;;6.97;4.77;;;;;;;-141.97;61.81;47551.75;4997716;28;20162;-86
2023/05/27 08:02:46;;;;;;;6.60;4.70;;;;;;;-141.97;60.84;47580.59;4997606;28;20182;-85
2023/05/27 08:05:12;;;;;;;6.90;4.97;;;;;;;-141.97;59.17;47845.84;4997637;28;20250;-86
2023/05/27 08:07:37;;;;;;;6.00;4.40;;;;;;;-141.97;59.06;47542.16;4997658;28;20195;-85
2023/05/27 08:10:03;;;;;;;7.83;4.87;;;;;;;-141.97;59.93;47630.56;4997455;28;20167;-86
2023/05/27 08:12:29;;;;;;;11.53;4.70;;;;;;;-141.97;60.27;47730.50;4997509;28;20160;-88
2023/05/27 08:14:54;;;;;;;6.73;5.10;;;;;;;-141.97;59.97;47488.31;4997702;28;20171;-86
2023/05/27 08:17:20;;;;;;;5.90;4.90;;;;;;;-141.97;60.18;47546.00;4996714;28;20585;-86
2023/05/27 08:19:45;;;;;;;6.23;5.03;;;;;;;-141.97;60.74;47544.06;4997706;28;20156;-87
2023/05/27 08:22:11;;;;;;;6.53;4.93;;;;;;;-141.97;60.99;47557.53;4997952;28;20160;-85
2023/05/27 08:24:36;;;;;;;12.53;5.63;;;;;;;-141.97;60.90;47840.06;4997733;28;20167;-87
2023/05/27 08:27:02;;;;;;;10.43;4.50;;;;;;;-141.97;59.90;47553.69;4997189;28;20191;-87
2023/05/27 08:29:30;;;;;;;5.83;5.23;;;;;;;-141.97;59.80;47619.03;4997886;28;20530;-86
2023/05/27 08:31:56;;;;;;;8.07;5.80;;;;;;;-141.97;58.87;47476.78;4997625;28;20163;-86
2023/05/27 08:34:23;;;;;;;7.37;5.53;;;;;;;-141.97;59.48;47465.25;4999124;28;20650;-85
2023/05/27 08:36:48;;;;;;;7.77;5.40;;;;;;;-141.97;59.63;47765.09;4999558;28;20155;-86
2023/05/27 08:39:14;;;;;;;9.40;5.30;;;;;;;-141.97;60.36;47457.56;4998508;28;20238;-86
2023/05/27 08:41:39;;;;;;;6.17;5.00;;;;;;;-141.97;60.45;47742.03;4980952;28;20230;-86
2023/05/27 08:44:06;;;;;;;9.10;5.87;;;;;;;-141.97;60.36;47534.44;4980344;28;20182;-87
2023/05/27 08:46:33;;;;;;;10.60;5.80;;;;;;;-141.97;60.01;47630.56;4996899;28;20249;-86
2023/05/27 08:48:59;;;;;;;7.30;5.70;;;;;;;-141.97;59.54;47549.84;4998544;28;20167;-85
2023/05/27 08:51:26;;;;;;;12.70;6.20;;;;;;;-141.97;59.83;47601.72;4980936;28;20167;-86
2023/05/27 08:53:52;;;;;;;8.20;5.83;;;;;;;-141.97;60.32;47553.69;4997260;28;20213;-86
2023/05/27 08:56:21;;;;;;;9.13;5.30;;;;;;;-141.97;60.13;47578.66;4998422;28;20167;-84
2023/05/27 08:58:47;;;;;;;7.40;5.60;;;;;;;-141.97;61.22;47611.34;4997804;28;20162;-85
2023/05/27 09:01:15;;;;;;;9.43;5.83;;;;;;;-141.97;61.87;47444.13;5000758;28;20163;-85
2023/05/27 09:03:41;;;;;;;7.07;5.30;;;;;;;-141.97;61.26;47626.72;5011487;28;20155;-85
2023/05/27 09:06:06;;;;;;;7.93;5.47;;;;;;;-141.97;60.63;47632.47;5002624;28;20160;-83
2023/05/27 09:08:32;;;;;;;6.20;5.20;;;;;;;-141.97;60.33;47620.94;4998891;28;20184;-86
2023/05/27 09:10:57;;;;;;;5.83;5.23;;;;;;;-141.97;60.13;47630.56;4996507;28;20172;-84
2023/05/27 09:13:30;;;;;;;7.23;5.20;;;;;;;-141.97;60.09;47628.63;4997488;28;20174;-83
2023/05/27 09:16:08;;;;;;;8.57;5.03;;;;;;;-141.97;59.79;47603.66;4994904;28;20242;-85
2023/05/27 09:18:35;;;;;;;7.93;5.37;;;;;;;-141.97;59.97;47655.53;4989201;28;20194;-84
2023/05/27 09:21:01;;;;;;;5.97;4.90;;;;;;;-141.97;59.43;47647.84;4997197;28;20179;-85
2023/05/27 09:23:27;;;;;;;6.80;5.23;;;;;;;-141.97;59.19;47594.03;4998433;28;20217;-85
2023/05/27 09:25:52;;;;;;;8.70;5.30;;;;;;;-141.97;59.20;47799.72;4980924;28;20166;-84
2023/05/27 09:28:24;;;;;;;6.30;5.00;;;;;;;-141.97;59.00;47780.47;4980785;28;20306;-83
2023/05/27 09:31:04;;;;;;;6.13;4.80;;;;;;;-141.97;58.61;47624.78;4999686;28;20183;-84
2023/05/27 09:33:32;;;;;;;7.67;4.80;;;;;;;-141.97;58.76;47622.88;4980134;28;20631;-84
2023/05/27 09:35:58;;;;;;;9.77;5.17;;;;;;;-141.97;58.51;47609.41;4979456;28;20190;-83
2023/05/27 09:38:24;;;;;;;7.97;5.20;;;;;;;-141.97;58.79;47619.03;5014961;28;20174;-84
2023/05/27 09:40:49;;;;;;;8.73;4.87;;;;;;;-141.97;58.53;47624.78;5016286;28;20221;-84
2023/05/27 09:43:18;;;;;;;7.53;5.00;;;;;;;-141.97;58.15;47836.22;5016466;28;20214;-83
2023/05/27 09:45:44;;;;;;;7.97;4.97;;;;;;;-141.97;57.81;47640.16;5016855;28;20158;-84
2023/05/27 09:48:13;;;;;;;6.87;4.63;;;;;;;-141.97;57.27;47605.56;4999158;28;20187;-83
2023/05/27 09:50:40;;;;;;;7.73;4.60;;;;;;;-141.97;56.80;47665.16;4998946;28;20166;-84
2023/05/27 09:53:06;;;;;;;7.50;4.83;;;;;;;-141.97;56.92;47576.75;5017253;28;20166;-84
2023/05/27 09:55:32;;;;;;;6.60;5.00;;;;;;;-141.97;56.89;47617.09;5016655;28;20163;-84
2023/05/27 09:57:58;;;;;;;7.37;5.03;;;;;;;-141.97;56.45;47588.28;5016656;28;20170;-84
2023/05/27 10:00:26;;;;;;;7.17;5.30;;;;;;;-141.97;56.54;47613.25;5016027;28;20166;-84
2023/05/27 10:02:53;;;;;;;7.70;4.70;;;;;;;-141.97;55.40;47572.91;5016557;28;20171;-84
2023/05/27 10:05:20;;;;;;;7.07;4.83;;;;;;;-141.97;55.42;47603.66;5017403;28;20586;-83
2023/05/27 10:07:46;;;;;;;6.73;4.70;;;;;;;-141.97;55.21;47624.78;5019294;28;20214;-84
2023/05/27 10:10:18;;;;;;;13.30;5.40;;;;;;;-141.97;55.44;47730.50;5013494;28;20163;-85
2023/05/27 10:12:45;;;;;;;8.13;5.00;;;;;;;-141.97;55.96;47447.97;5014625;28;20167;-86
2023/05/27 10:15:24;;;;;;;9.43;5.20;;;;;;;-141.97;55.38;47578.66;5033577;28;20243;-85
2023/05/27 10:17:56;;;;;;;7.47;5.10;;;;;;;-141.97;56.18;47388.38;5011709;28;20169;-85
2023/05/27 10:20:30;;;;;;;7.73;4.97;;;;;;;-141.97;55.84;47594.03;5023682;28;20174;-84
2023/05/27 10:22:56;;;;;;;6.87;4.80;;;;;;;-141.97;55.78;47745.88;5018876;28;20709;-84
2023/05/27 10:25:23;;;;;;;5.07;4.57;;;;;;;-141.97;55.11;47622.88;5019314;28;20604;-83
2023/05/27 10:27:48;;;;;;;5.73;5.13;;;;;;;-141.97;55.70;47446.03;5032806;28;20178;-85
2023/05/27 10:30:15;;;;;;;6.60;4.60;;;;;;;-141.97;56.06;47588.28;5004342;28;20230;-86
2023/05/27 10:32:50;;;;;;;7.13;5.00;;;;;;;-141.97;56.29;47526.75;5033814;28;20166;-85
2023/05/27 10:35:19;;;;;;;9.77;4.97;;;;;;;-141.97;55.48;47613.25;5013680;28;20182;-85
2023/05/27 10:37:48;;;;;;;5.03;4.53;;;;;;;-141.97;55.19;47784.34;5015219;28;20166;-86
2023/05/27 10:40:24;;;;;;;5.60;4.33;;;;;;;-141.97;52.98;47580.59;5014228;28;20163;-86
2023/05/27 10:42:59;;;;;;;5.17;4.20;;;;;;;-141.97;52.65;47592.13;5011406;28;20215;-85
2023/05/27 10:45:33;;;;;;;5.33;4.27;;;;;;;-141.97;51.88;47507.53;4992672;28;20195;-85
2023/05/27 10:47:59;;;;;;;6.07;4.60;;;;;;;-141.97;51.42;47567.13;5005992;28;20711;-85
2023/05/27 10:50:33;;;;;;;6.37;4.33;;;;;;;-141.97;50.55;47398.00;4989864;28;20203;-84
2023/05/27 10:52:59;;;;;;;5.37;4.10;;;;;;;-141.97;50.45;47792.03;4975115;28;20168;-83
2023/05/27 10:55:25;;;;;;;6.60;4.20;;;;;;;-141.97;49.97;47549.84;4974299;28;20178;-85
2023/05/27 10:57:51;;;;;;;6.33;4.10;;;;;;;-141.97;49.36;47542.16;4988594;28;20546;-86
2023/05/27 11:00:20;;;;;;;4.90;4.40;;;;;;;-141.97;49.14;47421.06;4972918;28;20187;-83
2023/05/27 11:02:46;;;;;;;7.87;4.80;;;;;;;-141.97;49.44;47578.66;4975499;28;20176;-85
2023/05/27 11:05:16;;;;;;;8.20;5.35;;;;;;;-141.97;48.05;47411.44;4975863;28;20176;-86
2023/05/27 11:07:42;;;;;;;5.60;4.40;;;;;;;-141.97;47.96;47778.56;4966839;28;20203;-83
2023/05/27 11:10:09;;;;;;;5.33;3.90;;;;;;;-141.97;46.67;47532.53;4981336;28;20275;-84
2023/05/27 11:12:35;;;;;;;4.55;3.88;;;;;;;-141.97;46.67;47553.69;4968220;28;20170;-85
2023/05/27 11:15:01;;;;;;;4.68;3.88;;;;;;;-141.97;45.01;47684.38;4978670;28;20173;-85